Terminal Aerodrome Forecast
Issued by NWS

Home | Current Version | Previous Version | Text Only | Print | Product List | Glossary On
Versions: 1 2 3 4 5 6 7 8 9 10 11 12 13 14 15
000
FTUS41 KPHI 211122
TAFPNE
TAF
KPNE 211122Z 2112/2212 05005KT P6SM BKN250
     FM211500 10006KT P6SM BKN250
     FM211800 17007KT P6SM BKN250
     FM221000 19004KT P6SM SCT050 OVC090=

USA.gov is the U.S. government's official web portal to all federal, state and local government web resources and services.